sensor_id;sensor_type;location;lat;lon;timestamp;P1;durP1;ratioP1;P2;durP2;ratioP2
58071;SDS011;60383;46.626;18.866;2022-09-30T00:00:13;10.82;;;9.38;;
58071;SDS011;60383;46.626;18.866;2022-09-30T00:02:38;11.18;;;9.45;;
58071;SDS011;60383;46.626;18.866;2022-09-30T00:05:04;10.63;;;9.63;;
58071;SDS011;60383;46.626;18.866;2022-09-30T00:07:29;10.68;;;9.68;;
58071;SDS011;60383;46.626;18.866;2022-09-30T00:09:55;11.52;;;10.43;;
58071;SDS011;60383;46.626;18.866;2022-09-30T00:12:21;10.93;;;9.88;;
58071;SDS011;60383;46.626;18.866;2022-09-30T00:14:46;11.82;;;10.52;;
58071;SDS011;60383;46.626;18.866;2022-09-30T00:17:12;12.07;;;10.43;;
58071;SDS011;60383;46.626;18.866;2022-09-30T00:19:37;12.38;;;10.68;;
58071;SDS011;60383;46.626;18.866;2022-09-30T00:22:03;11.23;;;10.13;;
58071;SDS011;60383;46.626;18.866;2022-09-30T00:24:28;10.75;;;9.65;;
58071;SDS011;60383;46.626;18.866;2022-09-30T00:26:53;11.18;;;9.95;;
58071;SDS011;60383;46.626;18.866;2022-09-30T00:29:19;11.77;;;10.15;;
58071;SDS011;60383;46.626;18.866;2022-09-30T00:31:44;15.57;;;11.60;;
58071;SDS011;60383;46.626;18.866;2022-09-30T00:34:10;13.05;;;11.57;;
58071;SDS011;60383;46.626;18.866;2022-09-30T00:39:08;12.70;;;11.40;;
58071;SDS011;60383;46.626;18.866;2022-09-30T00:41:35;13.93;;;11.20;;
58071;SDS011;60383;46.626;18.866;2022-09-30T00:44:01;12.55;;;11.25;;
58071;SDS011;60383;46.626;18.866;2022-09-30T00:46:47;12.48;;;10.40;;
58071;SDS011;60383;46.626;18.866;2022-09-30T00:49:14;11.88;;;10.43;;
58071;SDS011;60383;46.626;18.866;2022-09-30T00:51:45;14.45;;;11.10;;
58071;SDS011;60383;46.626;18.866;2022-09-30T00:56:43;13.93;;;11.13;;
58071;SDS011;60383;46.626;18.866;2022-09-30T00:59:17;13.63;;;10.60;;
58071;SDS011;60383;46.626;18.866;2022-09-30T01:01:48;11.90;;;9.80;;
58071;SDS011;60383;46.626;18.866;2022-09-30T01:04:14;12.38;;;9.77;;
58071;SDS011;60383;46.626;18.866;2022-09-30T01:06:42;10.52;;;8.73;;
58071;SDS011;60383;46.626;18.866;2022-09-30T01:09:09;10.07;;;8.85;;
58071;SDS011;60383;46.626;18.866;2022-09-30T01:11:35;10.50;;;8.75;;
58071;SDS011;60383;46.626;18.866;2022-09-30T01:14:10;10.50;;;8.95;;
58071;SDS011;60383;46.626;18.866;2022-09-30T01:22:18;9.75;;;8.75;;
58071;SDS011;60383;46.626;18.866;2022-09-30T01:27:28;10.50;;;8.77;;
58071;SDS011;60383;46.626;18.866;2022-09-30T01:30:14;10.23;;;8.60;;
58071;SDS011;60383;46.626;18.866;2022-09-30T01:33:01;11.00;;;9.48;;
58071;SDS011;60383;46.626;18.866;2022-09-30T01:40:53;10.30;;;9.05;;
58071;SDS011;60383;46.626;18.866;2022-09-30T01:43:42;11.38;;;9.45;;
58071;SDS011;60383;46.626;18.866;2022-09-30T01:48:43;11.45;;;9.65;;
58071;SDS011;60383;46.626;18.866;2022-09-30T01:53:57;13.82;;;10.07;;
58071;SDS011;60383;46.626;18.866;2022-09-30T01:56:31;11.75;;;9.63;;
58071;SDS011;60383;46.626;18.866;2022-09-30T01:59:06;11.07;;;9.98;;
58071;SDS011;60383;46.626;18.866;2022-09-30T02:01:43;10.40;;;9.30;;
58071;SDS011;60383;46.626;18.866;2022-09-30T02:04:16;11.95;;;9.60;;
58071;SDS011;60383;46.626;18.866;2022-09-30T02:06:49;12.18;;;9.82;;
58071;SDS011;60383;46.626;18.866;2022-09-30T02:09:40;11.60;;;9.73;;
58071;SDS011;60383;46.626;18.866;2022-09-30T02:12:14;12.23;;;10.07;;
58071;SDS011;60383;46.626;18.866;2022-09-30T02:14:44;11.68;;;10.48;;
58071;SDS011;60383;46.626;18.866;2022-09-30T02:17:22;12.25;;;10.10;;
58071;SDS011;60383;46.626;18.866;2022-09-30T02:19:55;12.40;;;10.32;;
58071;SDS011;60383;46.626;18.866;2022-09-30T02:22:28;12.40;;;10.18;;
58071;SDS011;60383;46.626;18.866;2022-09-30T02:25:04;12.43;;;9.95;;
58071;SDS011;60383;46.626;18.866;2022-09-30T02:27:34;13.48;;;9.70;;
58071;SDS011;60383;46.626;18.866;2022-09-30T02:30:06;11.52;;;9.85;;
58071;SDS011;60383;46.626;18.866;2022-09-30T02:32:35;13.10;;;10.43;;
58071;SDS011;60383;46.626;18.866;2022-09-30T02:35:05;11.93;;;9.85;;
58071;SDS011;60383;46.626;18.866;2022-09-30T02:37:41;11.13;;;9.98;;
58071;SDS011;60383;46.626;18.866;2022-09-30T02:40:14;11.68;;;9.77;;
58071;SDS011;60383;46.626;18.866;2022-09-30T02:42:46;11.85;;;9.82;;
58071;SDS011;60383;46.626;18.866;2022-09-30T02:45:13;11.45;;;10.23;;
58071;SDS011;60383;46.626;18.866;2022-09-30T02:50:34;11.75;;;9.98;;
58071;SDS011;60383;46.626;18.866;2022-09-30T02:53:16;10.65;;;9.50;;
58071;SDS011;60383;46.626;18.866;2022-09-30T02:58:57;11.25;;;9.57;;
58071;SDS011;60383;46.626;18.866;2022-09-30T03:01:23;12.73;;;10.73;;
58071;SDS011;60383;46.626;18.866;2022-09-30T03:06:17;12.10;;;9.70;;
58071;SDS011;60383;46.626;18.866;2022-09-30T03:08:43;10.80;;;9.32;;
58071;SDS011;60383;46.626;18.866;2022-09-30T03:11:14;11.57;;;9.65;;
58071;SDS011;60383;46.626;18.866;2022-09-30T03:20:05;14.27;;;10.73;;
58071;SDS011;60383;46.626;18.866;2022-09-30T03:28:08;12.23;;;10.27;;
58071;SDS011;60383;46.626;18.866;2022-09-30T03:30:39;11.43;;;10.23;;
58071;SDS011;60383;46.626;18.866;2022-09-30T03:35:51;13.13;;;10.40;;
58071;SDS011;60383;46.626;18.866;2022-09-30T03:38:36;12.18;;;10.18;;
58071;SDS011;60383;46.626;18.866;2022-09-30T03:44:07;12.30;;;10.60;;
58071;SDS011;60383;46.626;18.866;2022-09-30T03:46:48;12.85;;;10.55;;
58071;SDS011;60383;46.626;18.866;2022-09-30T03:49:19;13.15;;;10.75;;
58071;SDS011;60383;46.626;18.866;2022-09-30T03:51:49;13.43;;;11.30;;
58071;SDS011;60383;46.626;18.866;2022-09-30T03:54:15;12.95;;;10.52;;
58071;SDS011;60383;46.626;18.866;2022-09-30T03:56:41;14.45;;;11.52;;
58071;SDS011;60383;46.626;18.866;2022-09-30T03:59:15;13.07;;;11.18;;
58071;SDS011;60383;46.626;18.866;2022-09-30T04:01:47;28.38;;;22.02;;
58071;SDS011;60383;46.626;18.866;2022-09-30T04:04:12;20.10;;;16.23;;
58071;SDS011;60383;46.626;18.866;2022-09-30T04:06:37;15.95;;;13.63;;
58071;SDS011;60383;46.626;18.866;2022-09-30T04:09:03;13.93;;;11.65;;
58071;SDS011;60383;46.626;18.866;2022-09-30T04:11:28;13.98;;;12.05;;
58071;SDS011;60383;46.626;18.866;2022-09-30T04:13:54;14.48;;;12.73;;
58071;SDS011;60383;46.626;18.866;2022-09-30T04:16:19;14.55;;;11.23;;
58071;SDS011;60383;46.626;18.866;2022-09-30T04:18:45;15.57;;;12.07;;
58071;SDS011;60383;46.626;18.866;2022-09-30T04:21:11;12.85;;;11.48;;
58071;SDS011;60383;46.626;18.866;2022-09-30T04:23:38;15.45;;;13.05;;
58071;SDS011;60383;46.626;18.866;2022-09-30T04:26:05;15.18;;;12.45;;
58071;SDS011;60383;46.626;18.866;2022-09-30T04:28:31;16.80;;;12.32;;
58071;SDS011;60383;46.626;18.866;2022-09-30T04:30:58;15.38;;;12.38;;
58071;SDS011;60383;46.626;18.866;2022-09-30T04:33:24;15.98;;;13.18;;
58071;SDS011;60383;46.626;18.866;2022-09-30T04:35:53;14.00;;;11.18;;
58071;SDS011;60383;46.626;18.866;2022-09-30T04:38:20;15.43;;;12.60;;
58071;SDS011;60383;46.626;18.866;2022-09-30T04:40:46;13.15;;;11.63;;
58071;SDS011;60383;46.626;18.866;2022-09-30T04:43:13;13.65;;;11.65;;
58071;SDS011;60383;46.626;18.866;2022-09-30T04:45:41;14.10;;;12.05;;
58071;SDS011;60383;46.626;18.866;2022-09-30T04:48:08;13.82;;;12.07;;
58071;SDS011;60383;46.626;18.866;2022-09-30T04:50:33;15.35;;;12.88;;
58071;SDS011;60383;46.626;18.866;2022-09-30T04:52:59;14.35;;;12.43;;
58071;SDS011;60383;46.626;18.866;2022-09-30T04:55:24;15.85;;;12.35;;
58071;SDS011;60383;46.626;18.866;2022-09-30T04:57:50;14.48;;;12.60;;
58071;SDS011;60383;46.626;18.866;2022-09-30T05:00:15;13.27;;;11.77;;
58071;SDS011;60383;46.626;18.866;2022-09-30T05:02:44;15.65;;;12.60;;
58071;SDS011;60383;46.626;18.866;2022-09-30T05:05:10;15.77;;;13.18;;
58071;SDS011;60383;46.626;18.866;2022-09-30T05:07:35;14.13;;;12.15;;
58071;SDS011;60383;46.626;18.866;2022-09-30T05:10:01;13.90;;;11.82;;
58071;SDS011;60383;46.626;18.866;2022-09-30T05:12:26;13.50;;;12.05;;
58071;SDS011;60383;46.626;18.866;2022-09-30T05:14:51;14.18;;;12.27;;
58071;SDS011;60383;46.626;18.866;2022-09-30T05:17:17;14.63;;;12.80;;
58071;SDS011;60383;46.626;18.866;2022-09-30T05:19:42;14.70;;;13.18;;
58071;SDS011;60383;46.626;18.866;2022-09-30T05:22:07;16.42;;;13.18;;
58071;SDS011;60383;46.626;18.866;2022-09-30T05:24:33;14.15;;;12.52;;
58071;SDS011;60383;46.626;18.866;2022-09-30T05:26:58;14.70;;;12.38;;
58071;SDS011;60383;46.626;18.866;2022-09-30T05:29:25;16.63;;;13.80;;
58071;SDS011;60383;46.626;18.866;2022-09-30T05:31:51;14.80;;;12.88;;
58071;SDS011;60383;46.626;18.866;2022-09-30T05:34:16;14.90;;;13.02;;
58071;SDS011;60383;46.626;18.866;2022-09-30T05:36:42;17.60;;;14.43;;
58071;SDS011;60383;46.626;18.866;2022-09-30T05:39:08;15.65;;;13.75;;
58071;SDS011;60383;46.626;18.866;2022-09-30T05:41:34;16.15;;;13.50;;
58071;SDS011;60383;46.626;18.866;2022-09-30T05:44:00;16.85;;;13.57;;
58071;SDS011;60383;46.626;18.866;2022-09-30T05:46:25;17.08;;;13.20;;
58071;SDS011;60383;46.626;18.866;2022-09-30T05:48:52;18.20;;;14.30;;
58071;SDS011;60383;46.626;18.866;2022-09-30T05:51:21;18.48;;;14.80;;
58071;SDS011;60383;46.626;18.866;2022-09-30T05:53:47;18.20;;;14.65;;
58071;SDS011;60383;46.626;18.866;2022-09-30T05:56:12;16.77;;;13.95;;
58071;SDS011;60383;46.626;18.866;2022-09-30T05:58:38;16.13;;;13.60;;
58071;SDS011;60383;46.626;18.866;2022-09-30T06:01:14;14.73;;;12.35;;
58071;SDS011;60383;46.626;18.866;2022-09-30T06:03:41;15.35;;;12.90;;
58071;SDS011;60383;46.626;18.866;2022-09-30T06:06:07;14.68;;;12.55;;
58071;SDS011;60383;46.626;18.866;2022-09-30T06:08:33;15.32;;;12.73;;
58071;SDS011;60383;46.626;18.866;2022-09-30T06:10:59;14.73;;;11.60;;
58071;SDS011;60383;46.626;18.866;2022-09-30T06:13:25;12.57;;;10.55;;
58071;SDS011;60383;46.626;18.866;2022-09-30T06:15:57;12.55;;;10.57;;
58071;SDS011;60383;46.626;18.866;2022-09-30T06:18:25;13.65;;;11.63;;
58071;SDS011;60383;46.626;18.866;2022-09-30T06:20:58;11.95;;;10.75;;
58071;SDS011;60383;46.626;18.866;2022-09-30T06:23:25;13.30;;;9.95;;
58071;SDS011;60383;46.626;18.866;2022-09-30T06:25:51;12.90;;;11.60;;
58071;SDS011;60383;46.626;18.866;2022-09-30T06:28:18;13.27;;;11.30;;
58071;SDS011;60383;46.626;18.866;2022-09-30T06:30:44;13.32;;;11.68;;
58071;SDS011;60383;46.626;18.866;2022-09-30T06:33:09;13.23;;;10.15;;
58071;SDS011;60383;46.626;18.866;2022-09-30T06:35:35;12.50;;;10.52;;
58071;SDS011;60383;46.626;18.866;2022-09-30T06:38:00;11.70;;;10.00;;
58071;SDS011;60383;46.626;18.866;2022-09-30T06:40:26;11.02;;;9.80;;
58071;SDS011;60383;46.626;18.866;2022-09-30T06:42:56;10.88;;;9.65;;
58071;SDS011;60383;46.626;18.866;2022-09-30T06:45:23;14.40;;;9.43;;
58071;SDS011;60383;46.626;18.866;2022-09-30T06:47:48;11.85;;;10.63;;
58071;SDS011;60383;46.626;18.866;2022-09-30T06:50:16;11.80;;;9.88;;
58071;SDS011;60383;46.626;18.866;2022-09-30T06:52:42;12.90;;;10.75;;
58071;SDS011;60383;46.626;18.866;2022-09-30T06:55:07;11.00;;;9.90;;
58071;SDS011;60383;46.626;18.866;2022-09-30T06:57:33;11.25;;;10.15;;
58071;SDS011;60383;46.626;18.866;2022-09-30T06:59:59;10.93;;;9.40;;
58071;SDS011;60383;46.626;18.866;2022-09-30T07:02:25;10.95;;;9.07;;
58071;SDS011;60383;46.626;18.866;2022-09-30T07:04:53;11.68;;;9.38;;
58071;SDS011;60383;46.626;18.866;2022-09-30T07:07:18;10.80;;;9.68;;
58071;SDS011;60383;46.626;18.866;2022-09-30T07:09:46;10.70;;;9.20;;
58071;SDS011;60383;46.626;18.866;2022-09-30T07:12:11;11.50;;;9.32;;
58071;SDS011;60383;46.626;18.866;2022-09-30T07:14:37;13.10;;;9.88;;
58071;SDS011;60383;46.626;18.866;2022-09-30T07:17:02;15.00;;;12.77;;
58071;SDS011;60383;46.626;18.866;2022-09-30T07:19:30;17.90;;;14.15;;
58071;SDS011;60383;46.626;18.866;2022-09-30T07:21:58;15.63;;;12.63;;
58071;SDS011;60383;46.626;18.866;2022-09-30T07:24:42;11.13;;;9.25;;
58071;SDS011;60383;46.626;18.866;2022-09-30T07:27:07;11.35;;;9.15;;
58071;SDS011;60383;46.626;18.866;2022-09-30T07:29:32;11.85;;;8.98;;
58071;SDS011;60383;46.626;18.866;2022-09-30T07:31:58;9.25;;;8.27;;
58071;SDS011;60383;46.626;18.866;2022-09-30T07:34:23;13.30;;;8.60;;
58071;SDS011;60383;46.626;18.866;2022-09-30T07:36:49;20.10;;;7.90;;
58071;SDS011;60383;46.626;18.866;2022-09-30T07:39:14;14.15;;;9.73;;
58071;SDS011;60383;46.626;18.866;2022-09-30T07:41:39;12.38;;;8.05;;
58071;SDS011;60383;46.626;18.866;2022-09-30T07:44:07;14.45;;;8.35;;
58071;SDS011;60383;46.626;18.866;2022-09-30T07:46:38;8.68;;;7.43;;
58071;SDS011;60383;46.626;18.866;2022-09-30T07:49:05;8.10;;;7.20;;
58071;SDS011;60383;46.626;18.866;2022-09-30T07:51:37;8.63;;;7.22;;
58071;SDS011;60383;46.626;18.866;2022-09-30T07:54:08;7.05;;;6.25;;
58071;SDS011;60383;46.626;18.866;2022-09-30T07:56:37;6.20;;;5.60;;
58071;SDS011;60383;46.626;18.866;2022-09-30T07:59:04;6.75;;;6.07;;
58071;SDS011;60383;46.626;18.866;2022-09-30T08:01:30;7.07;;;6.38;;
58071;SDS011;60383;46.626;18.866;2022-09-30T08:03:57;7.07;;;6.40;;
58071;SDS011;60383;46.626;18.866;2022-09-30T08:06:26;6.43;;;5.38;;
58071;SDS011;60383;46.626;18.866;2022-09-30T08:08:54;6.55;;;5.50;;
58071;SDS011;60383;46.626;18.866;2022-09-30T08:11:20;5.55;;;5.05;;
58071;SDS011;60383;46.626;18.866;2022-09-30T08:13:53;6.82;;;4.88;;
58071;SDS011;60383;46.626;18.866;2022-09-30T08:16:20;5.50;;;5.00;;
58071;SDS011;60383;46.626;18.866;2022-09-30T08:18:46;4.80;;;4.28;;
58071;SDS011;60383;46.626;18.866;2022-09-30T08:21:12;6.05;;;4.95;;
58071;SDS011;60383;46.626;18.866;2022-09-30T08:23:38;4.47;;;3.97;;
58071;SDS011;60383;46.626;18.866;2022-09-30T08:26:07;6.47;;;4.30;;
58071;SDS011;60383;46.626;18.866;2022-09-30T08:28:37;4.25;;;3.78;;
58071;SDS011;60383;46.626;18.866;2022-09-30T08:31:07;4.85;;;3.50;;
58071;SDS011;60383;46.626;18.866;2022-09-30T08:33:35;4.40;;;3.85;;
58071;SDS011;60383;46.626;18.866;2022-09-30T08:36:04;5.03;;;3.95;;
58071;SDS011;60383;46.626;18.866;2022-09-30T08:38:30;3.35;;;3.05;;
58071;SDS011;60383;46.626;18.866;2022-09-30T08:41:43;3.28;;;2.92;;
58071;SDS011;60383;46.626;18.866;2022-09-30T08:44:20;3.15;;;2.88;;
58071;SDS011;60383;46.626;18.866;2022-09-30T08:47:09;2.80;;;2.60;;
58071;SDS011;60383;46.626;18.866;2022-09-30T08:52:23;4.18;;;2.38;;
58071;SDS011;60383;46.626;18.866;2022-09-30T08:54:53;7.63;;;2.72;;
58071;SDS011;60383;46.626;18.866;2022-09-30T08:57:21;8.95;;;2.60;;
58071;SDS011;60383;46.626;18.866;2022-09-30T08:59:54;3.13;;;2.35;;
58071;SDS011;60383;46.626;18.866;2022-09-30T09:02:25;4.85;;;2.28;;
58071;SDS011;60383;46.626;18.866;2022-09-30T09:04:58;7.35;;;2.78;;
58071;SDS011;60383;46.626;18.866;2022-09-30T09:10:37;2.08;;;1.70;;
58071;SDS011;60383;46.626;18.866;2022-09-30T09:18:48;2.33;;;1.30;;
58071;SDS011;60383;46.626;18.866;2022-09-30T09:24:02;1.55;;;1.20;;
58071;SDS011;60383;46.626;18.866;2022-09-30T09:26:36;1.40;;;1.30;;
58071;SDS011;60383;46.626;18.866;2022-09-30T09:29:17;1.58;;;1.20;;
58071;SDS011;60383;46.626;18.866;2022-09-30T09:31:48;2.65;;;1.20;;
58071;SDS011;60383;46.626;18.866;2022-09-30T09:34:13;2.08;;;1.30;;
58071;SDS011;60383;46.626;18.866;2022-09-30T09:36:42;1.30;;;0.95;;
58071;SDS011;60383;46.626;18.866;2022-09-30T09:45:07;3.35;;;0.70;;
58071;SDS011;60383;46.626;18.866;2022-09-30T09:47:40;2.72;;;0.55;;
58071;SDS011;60383;46.626;18.866;2022-09-30T09:50:31;0.75;;;0.57;;
58071;SDS011;60383;46.626;18.866;2022-09-30T09:55:50;0.85;;;0.52;;
58071;SDS011;60383;46.626;18.866;2022-09-30T09:58:21;0.52;;;0.50;;
58071;SDS011;60383;46.626;18.866;2022-09-30T10:00:46;1.05;;;0.52;;
58071;SDS011;60383;46.626;18.866;2022-09-30T10:03:12;1.00;;;0.43;;
58071;SDS011;60383;46.626;18.866;2022-09-30T10:08:28;0.93;;;0.50;;
58071;SDS011;60383;46.626;18.866;2022-09-30T10:11:05;1.13;;;0.55;;
58071;SDS011;60383;46.626;18.866;2022-09-30T10:13:43;2.25;;;0.68;;
58071;SDS011;60383;46.626;18.866;2022-09-30T10:19:20;1.40;;;0.70;;
58071;SDS011;60383;46.626;18.866;2022-09-30T10:21:49;0.68;;;0.55;;
58071;SDS011;60383;46.626;18.866;2022-09-30T10:24:18;2.25;;;0.68;;
58071;SDS011;60383;46.626;18.866;2022-09-30T10:26:44;0.50;;;0.50;;
58071;SDS011;60383;46.626;18.866;2022-09-30T10:29:23;0.82;;;0.60;;
58071;SDS011;60383;46.626;18.866;2022-09-30T10:31:52;0.45;;;0.45;;
58071;SDS011;60383;46.626;18.866;2022-09-30T10:34:25;0.40;;;0.40;;
58071;SDS011;60383;46.626;18.866;2022-09-30T10:36:53;1.65;;;0.57;;
58071;SDS011;60383;46.626;18.866;2022-09-30T10:39:36;0.77;;;0.50;;
58071;SDS011;60383;46.626;18.866;2022-09-30T10:44:46;1.13;;;0.80;;
58071;SDS011;60383;46.626;18.866;2022-09-30T10:47:16;1.00;;;0.50;;
58071;SDS011;60383;46.626;18.866;2022-09-30T10:49:45;1.08;;;0.60;;
58071;SDS011;60383;46.626;18.866;2022-09-30T10:52:15;0.73;;;0.52;;
58071;SDS011;60383;46.626;18.866;2022-09-30T10:54:49;1.58;;;0.57;;
58071;SDS011;60383;46.626;18.866;2022-09-30T10:57:17;3.55;;;0.93;;
58071;SDS011;60383;46.626;18.866;2022-09-30T10:59:46;0.50;;;0.50;;
58071;SDS011;60383;46.626;18.866;2022-09-30T11:05:28;0.60;;;0.60;;
58071;SDS011;60383;46.626;18.866;2022-09-30T11:07:33;0.60;;;0.43;;
58071;SDS011;60383;46.626;18.866;2022-09-30T11:15:36;0.40;;;0.40;;
58071;SDS011;60383;46.626;18.866;2022-09-30T11:18:21;0.75;;;0.50;;
58071;SDS011;60383;46.626;18.866;2022-09-30T11:20:54;1.40;;;0.50;;
58071;SDS011;60383;46.626;18.866;2022-09-30T11:36:46;0.85;;;0.57;;
58071;SDS011;60383;46.626;18.866;2022-09-30T11:39:31;1.58;;;0.70;;
58071;SDS011;60383;46.626;18.866;2022-09-30T11:42:08;1.85;;;0.60;;
58071;SDS011;60383;46.626;18.866;2022-09-30T11:44:38;2.30;;;0.80;;
58071;SDS011;60383;46.626;18.866;2022-09-30T11:47:11;1.75;;;0.80;;
58071;SDS011;60383;46.626;18.866;2022-09-30T11:58:06;0.95;;;0.60;;
58071;SDS011;60383;46.626;18.866;2022-09-30T12:00:39;0.60;;;0.50;;
58071;SDS011;60383;46.626;18.866;2022-09-30T12:03:12;0.77;;;0.60;;
58071;SDS011;60383;46.626;18.866;2022-09-30T12:08:18;2.05;;;0.60;;
58071;SDS011;60383;46.626;18.866;2022-09-30T12:10:52;0.60;;;0.60;;
58071;SDS011;60383;46.626;18.866;2022-09-30T12:13:30;1.42;;;0.70;;
58071;SDS011;60383;46.626;18.866;2022-09-30T12:16:00;1.45;;;0.60;;
58071;SDS011;60383;46.626;18.866;2022-09-30T12:18:41;1.40;;;0.70;;
58071;SDS011;60383;46.626;18.866;2022-09-30T12:21:15;0.70;;;0.60;;
58071;SDS011;60383;46.626;18.866;2022-09-30T12:23:58;0.88;;;0.60;;
58071;SDS011;60383;46.626;18.866;2022-09-30T12:26:28;0.93;;;0.70;;
58071;SDS011;60383;46.626;18.866;2022-09-30T12:51:20;0.88;;;0.50;;
58071;SDS011;60383;46.626;18.866;2022-09-30T12:53:50;1.17;;;0.57;;
58071;SDS011;60383;46.626;18.866;2022-09-30T12:56:21;1.10;;;0.57;;
58071;SDS011;60383;46.626;18.866;2022-09-30T12:58:52;1.05;;;0.43;;
58071;SDS011;60383;46.626;18.866;2022-09-30T13:01:22;0.60;;;0.60;;
58071;SDS011;60383;46.626;18.866;2022-09-30T13:06:21;1.23;;;0.60;;
58071;SDS011;60383;46.626;18.866;2022-09-30T13:09:33;0.93;;;0.68;;
58071;SDS011;60383;46.626;18.866;2022-09-30T13:25:09;0.82;;;0.50;;
58071;SDS011;60383;46.626;18.866;2022-09-30T13:30:30;2.28;;;0.60;;
58071;SDS011;60383;46.626;18.866;2022-09-30T13:40:43;0.50;;;0.50;;
58071;SDS011;60383;46.626;18.866;2022-09-30T13:43:11;0.60;;;0.60;;
58071;SDS011;60383;46.626;18.866;2022-09-30T13:45:44;0.60;;;0.60;;
58071;SDS011;60383;46.626;18.866;2022-09-30T13:48:15;0.73;;;0.73;;
58071;SDS011;60383;46.626;18.866;2022-09-30T13:50:49;1.13;;;0.65;;
58071;SDS011;60383;46.626;18.866;2022-09-30T13:53:30;0.93;;;0.70;;
58071;SDS011;60383;46.626;18.866;2022-09-30T13:56:03;1.50;;;0.65;;
58071;SDS011;60383;46.626;18.866;2022-09-30T14:23:58;0.55;;;0.55;;
58071;SDS011;60383;46.626;18.866;2022-09-30T14:29:15;1.15;;;0.70;;
58071;SDS011;60383;46.626;18.866;2022-09-30T14:31:49;0.50;;;0.50;;
58071;SDS011;60383;46.626;18.866;2022-09-30T14:34:16;0.63;;;0.60;;
58071;SDS011;60383;46.626;18.866;2022-09-30T14:36:44;0.70;;;0.70;;
58071;SDS011;60383;46.626;18.866;2022-09-30T14:39:15;0.60;;;0.60;;
58071;SDS011;60383;46.626;18.866;2022-09-30T14:41:48;0.50;;;0.50;;
58071;SDS011;60383;46.626;18.866;2022-09-30T14:44:16;0.98;;;0.70;;
58071;SDS011;60383;46.626;18.866;2022-09-30T14:46:43;1.60;;;0.50;;
58071;SDS011;60383;46.626;18.866;2022-09-30T14:49:21;0.45;;;0.45;;
58071;SDS011;60383;46.626;18.866;2022-09-30T14:51:55;0.50;;;0.50;;
58071;SDS011;60383;46.626;18.866;2022-09-30T14:54:23;0.75;;;0.50;;
58071;SDS011;60383;46.626;18.866;2022-09-30T14:56:53;2.38;;;0.50;;
58071;SDS011;60383;46.626;18.866;2022-09-30T14:59:23;0.70;;;0.70;;
58071;SDS011;60383;46.626;18.866;2022-09-30T15:02:15;0.73;;;0.70;;
58071;SDS011;60383;46.626;18.866;2022-09-30T15:04:48;0.57;;;0.57;;
58071;SDS011;60383;46.626;18.866;2022-09-30T15:07:16;0.70;;;0.60;;
58071;SDS011;60383;46.626;18.866;2022-09-30T15:09:42;2.25;;;0.60;;
58071;SDS011;60383;46.626;18.866;2022-09-30T15:12:14;0.80;;;0.63;;
58071;SDS011;60383;46.626;18.866;2022-09-30T15:14:59;0.82;;;0.50;;
58071;SDS011;60383;46.626;18.866;2022-09-30T15:17:29;1.38;;;0.70;;
58071;SDS011;60383;46.626;18.866;2022-09-30T15:20:00;1.60;;;0.60;;
58071;SDS011;60383;46.626;18.866;2022-09-30T15:22:26;1.02;;;0.57;;
58071;SDS011;60383;46.626;18.866;2022-09-30T15:24:53;0.52;;;0.50;;
58071;SDS011;60383;46.626;18.866;2022-09-30T15:27:25;0.70;;;0.70;;
58071;SDS011;60383;46.626;18.866;2022-09-30T15:29:54;0.50;;;0.50;;
58071;SDS011;60383;46.626;18.866;2022-09-30T15:32:20;0.80;;;0.50;;
58071;SDS011;60383;46.626;18.866;2022-09-30T15:34:48;0.50;;;0.50;;
58071;SDS011;60383;46.626;18.866;2022-09-30T15:37:18;0.82;;;0.50;;
58071;SDS011;60383;46.626;18.866;2022-09-30T15:39:47;0.85;;;0.60;;
58071;SDS011;60383;46.626;18.866;2022-09-30T15:42:32;1.65;;;0.70;;
58071;SDS011;60383;46.626;18.866;2022-09-30T15:45:04;1.20;;;1.10;;
58071;SDS011;60383;46.626;18.866;2022-09-30T15:47:36;2.22;;;0.85;;
58071;SDS011;60383;46.626;18.866;2022-09-30T15:56:35;0.90;;;0.63;;
58071;SDS011;60383;46.626;18.866;2022-09-30T15:59:07;0.85;;;0.70;;
58071;SDS011;60383;46.626;18.866;2022-09-30T16:01:46;1.42;;;0.82;;
58071;SDS011;60383;46.626;18.866;2022-09-30T16:09:19;2.10;;;1.13;;
58071;SDS011;60383;46.626;18.866;2022-09-30T16:11:46;1.00;;;0.80;;
58071;SDS011;60383;46.626;18.866;2022-09-30T16:14:24;1.17;;;0.90;;
58071;SDS011;60383;46.626;18.866;2022-09-30T16:16:52;2.30;;;0.95;;
58071;SDS011;60383;46.626;18.866;2022-09-30T16:19:21;1.50;;;1.00;;
58071;SDS011;60383;46.626;18.866;2022-09-30T16:21:49;15.65;;;12.30;;
58071;SDS011;60383;46.626;18.866;2022-09-30T16:25:02;4.07;;;2.33;;
58071;SDS011;60383;46.626;18.866;2022-09-30T16:27:21;8.38;;;7.40;;
58071;SDS011;60383;46.626;18.866;2022-09-30T16:29:50;21.50;;;17.00;;
58071;SDS011;60383;46.626;18.866;2022-09-30T16:32:16;4.25;;;2.72;;
58071;SDS011;60383;46.626;18.866;2022-09-30T16:34:41;3.80;;;2.25;;
58071;SDS011;60383;46.626;18.866;2022-09-30T16:37:10;3.08;;;2.22;;
58071;SDS011;60383;46.626;18.866;2022-09-30T16:39:37;2.88;;;1.92;;
58071;SDS011;60383;46.626;18.866;2022-09-30T16:42:04;3.25;;;1.95;;
58071;SDS011;60383;46.626;18.866;2022-09-30T16:44:29;1.60;;;1.50;;
58071;SDS011;60383;46.626;18.866;2022-09-30T16:47:00;7.22;;;5.57;;
58071;SDS011;60383;46.626;18.866;2022-09-30T16:49:26;17.27;;;14.60;;
58071;SDS011;60383;46.626;18.866;2022-09-30T16:51:52;15.25;;;13.75;;
58071;SDS011;60383;46.626;18.866;2022-09-30T16:54:17;12.68;;;9.95;;
58071;SDS011;60383;46.626;18.866;2022-09-30T16:56:43;40.42;;;33.72;;
58071;SDS011;60383;46.626;18.866;2022-09-30T16:59:11;11.52;;;9.43;;
58071;SDS011;60383;46.626;18.866;2022-09-30T17:01:38;16.95;;;14.88;;
58071;SDS011;60383;46.626;18.866;2022-09-30T17:04:04;10.88;;;6.80;;
58071;SDS011;60383;46.626;18.866;2022-09-30T17:06:30;6.72;;;4.63;;
58071;SDS011;60383;46.626;18.866;2022-09-30T17:08:56;5.60;;;5.00;;
58071;SDS011;60383;46.626;18.866;2022-09-30T17:11:24;7.10;;;6.07;;
58071;SDS011;60383;46.626;18.866;2022-09-30T17:13:52;9.57;;;8.23;;
58071;SDS011;60383;46.626;18.866;2022-09-30T17:16:17;10.02;;;8.95;;
58071;SDS011;60383;46.626;18.866;2022-09-30T17:18:43;11.07;;;9.18;;
58071;SDS011;60383;46.626;18.866;2022-09-30T17:21:08;10.48;;;8.82;;
58071;SDS011;60383;46.626;18.866;2022-09-30T17:23:34;16.00;;;13.70;;
58071;SDS011;60383;46.626;18.866;2022-09-30T17:26:02;12.73;;;9.77;;
58071;SDS011;60383;46.626;18.866;2022-09-30T17:28:28;6.00;;;5.40;;
58071;SDS011;60383;46.626;18.866;2022-09-30T17:30:58;6.63;;;4.80;;
58071;SDS011;60383;46.626;18.866;2022-09-30T17:33:23;5.30;;;3.90;;
58071;SDS011;60383;46.626;18.866;2022-09-30T17:35:55;4.70;;;3.95;;
58071;SDS011;60383;46.626;18.866;2022-09-30T17:38:25;4.82;;;2.83;;
58071;SDS011;60383;46.626;18.866;2022-09-30T17:40:51;5.32;;;3.83;;
58071;SDS011;60383;46.626;18.866;2022-09-30T17:43:34;5.10;;;4.55;;
58071;SDS011;60383;46.626;18.866;2022-09-30T17:46:00;7.57;;;4.05;;
58071;SDS011;60383;46.626;18.866;2022-09-30T17:48:25;5.70;;;3.72;;
58071;SDS011;60383;46.626;18.866;2022-09-30T17:50:51;7.28;;;3.00;;
58071;SDS011;60383;46.626;18.866;2022-09-30T17:53:20;3.08;;;2.30;;
58071;SDS011;60383;46.626;18.866;2022-09-30T17:55:47;2.85;;;1.73;;
58071;SDS011;60383;46.626;18.866;2022-09-30T17:58:23;3.20;;;1.70;;
58071;SDS011;60383;46.626;18.866;2022-09-30T18:00:49;1.77;;;1.67;;